createdAt,value
2023-03-13T00:01:24.933Z,96707.00
2023-03-13T00:03:52.384Z,96701.81
2023-03-13T00:06:19.154Z,96701.66
2023-03-13T00:08:46.066Z,96702.56
2023-03-13T00:11:14.189Z,96694.06
2023-03-13T00:13:41.357Z,96694.81
2023-03-13T00:16:10.911Z,96686.91
2023-03-13T00:18:37.843Z,96681.53
2023-03-13T00:21:07.571Z,96667.75
2023-03-13T00:23:35.819Z,96663.69
2023-03-13T00:26:05.627Z,96657.94
2023-03-13T00:28:33.728Z,96652.31
2023-03-13T00:31:07.125Z,96659.47
2023-03-13T00:33:35.221Z,96641.59
2023-03-13T00:36:05.024Z,96626.94
2023-03-13T00:38:32.846Z,96621.63
2023-03-13T00:41:05.139Z,96616.66
2023-03-13T00:43:32.302Z,96631.47
2023-03-13T00:46:00.278Z,96627.47
2023-03-13T00:48:27.277Z,96620.22
2023-03-13T00:50:54.463Z,96622.81
2023-03-13T00:53:21.423Z,96612.97
2023-03-13T00:56:03.843Z,96602.22
2023-03-13T00:58:33.691Z,96597.38
2023-03-13T01:01:16.317Z,96598.25
2023-03-13T01:03:45.507Z,96594.13
2023-03-13T01:06:15.137Z,96580.69
2023-03-13T01:08:42.587Z,96585.88
2023-03-13T01:11:18.838Z,96581.16
2023-03-13T01:13:46.771Z,96571.44
2023-03-13T01:16:19.636Z,96567.72
2023-03-13T01:18:55.846Z,96563.41
2023-03-13T01:21:23.921Z,96548.91
2023-03-13T01:23:51.738Z,96541.56
2023-03-13T01:26:18.707Z,96522.81
2023-03-13T01:28:45.673Z,96517.75
2023-03-13T01:31:21.103Z,96495.00
2023-03-13T01:33:52.471Z,96479.13
2023-03-13T01:36:19.310Z,96446.16
2023-03-13T01:38:54.656Z,96424.25
2023-03-13T01:41:23.155Z,96402.31
2023-03-13T01:43:50.794Z,96383.06
2023-03-13T01:46:21.800Z,96346.06
2023-03-13T01:49:00.174Z,96315.13
2023-03-13T01:51:35.183Z,96273.31
2023-03-13T01:54:09.996Z,96236.47
2023-03-13T01:56:51.898Z,96205.75
2023-03-13T01:59:23.226Z,96177.44
2023-03-13T02:01:52.610Z,96152.91
2023-03-13T02:04:20.308Z,96116.81
2023-03-13T02:06:49.733Z,96107.63
2023-03-13T02:09:21.362Z,96110.97
2023-03-13T02:11:52.745Z,96090.44
2023-03-13T02:14:22.514Z,96079.91
2023-03-13T02:16:52.182Z,96079.59
2023-03-13T02:19:40.083Z,96064.69
2023-03-13T02:22:24.069Z,96063.28
2023-03-13T02:25:13.304Z,96059.16
2023-03-13T02:27:42.072Z,96055.50
2023-03-13T02:30:10.058Z,96049.53
2023-03-13T02:32:37.311Z,96060.13
2023-03-13T02:35:08.358Z,96054.59
2023-03-13T02:37:36.376Z,96044.53
2023-03-13T02:40:12.237Z,96037.50
2023-03-13T02:42:42.405Z,96017.13
2023-03-13T02:45:10.565Z,96008.22
2023-03-13T02:47:37.128Z,95994.91
2023-03-13T02:50:03.918Z,95998.03
2023-03-13T02:52:39.290Z,95999.56
2023-03-13T02:55:28.984Z,96005.50
2023-03-13T02:57:55.573Z,95995.13
2023-03-13T03:00:27.268Z,95988.31
2023-03-13T03:02:56.022Z,95963.91
2023-03-13T03:05:23.011Z,95946.47
2023-03-13T03:07:50.680Z,95921.28
2023-03-13T03:10:18.518Z,95908.66
2023-03-13T03:12:45.605Z,95884.44
2023-03-13T03:15:12.977Z,95856.50
2023-03-13T03:17:43.945Z,95838.66
2023-03-13T03:20:12.320Z,95806.06
2023-03-13T03:22:42.182Z,95788.31
2023-03-13T03:25:09.732Z,95773.81
2023-03-13T03:27:36.778Z,95758.69
2023-03-13T03:30:06.905Z,95751.66
2023-03-13T03:32:35.549Z,95738.59
2023-03-13T03:35:02.821Z,95740.53
2023-03-13T03:37:29.681Z,95728.47
2023-03-13T03:39:57.121Z,95707.84
2023-03-13T03:42:23.902Z,95708.03
2023-03-13T03:44:50.614Z,95701.66
2023-03-13T03:47:18.297Z,95678.31
2023-03-13T03:49:47.376Z,95674.41
2023-03-13T03:52:14.996Z,95666.81
2023-03-13T03:54:43.283Z,95673.94
2023-03-13T03:57:10.248Z,95663.13
2023-03-13T03:59:37.793Z,95646.41
2023-03-13T04:02:07.792Z,95646.53
2023-03-13T04:04:35.063Z,95657.72
2023-03-13T04:07:06.505Z,95658.75
2023-03-13T04:09:34.215Z,95658.56
2023-03-13T04:12:02.702Z,95664.16
2023-03-13T04:14:33.666Z,95662.31
2023-03-13T04:17:04.544Z,95643.91
2023-03-13T04:19:31.284Z,95631.25
2023-03-13T04:21:58.316Z,95617.56
2023-03-13T04:24:24.963Z,95589.47
2023-03-13T04:26:51.822Z,95609.16
2023-03-13T04:29:18.501Z,95617.59
2023-03-13T04:32:14.101Z,95615.00
2023-03-13T04:35:03.979Z,95616.19
2023-03-13T04:37:52.749Z,95616.59
2023-03-13T04:40:30.245Z,95586.47
2023-03-13T04:43:15.318Z,95569.47
2023-03-13T04:46:04.022Z,95567.38
2023-03-13T04:49:08.658Z,95565.03
2023-03-13T04:51:53.457Z,95572.72
2023-03-13T04:54:40.310Z,95563.59
2023-03-13T04:57:45.097Z,95540.69
2023-03-13T05:00:30.488Z,95535.81
2023-03-13T05:03:16.314Z,95527.00
2023-03-13T05:06:07.947Z,95521.63
2023-03-13T05:08:38.302Z,95530.56
2023-03-13T05:11:25.567Z,95526.28
2023-03-13T05:14:19.489Z,95549.69
2023-03-13T05:17:06.417Z,95548.56
2023-03-13T05:19:52.985Z,95554.53
2023-03-13T05:22:45.735Z,95557.97
2023-03-13T05:25:33.195Z,95558.75
2023-03-13T05:28:20.052Z,95547.75
2023-03-13T05:30:56.111Z,95540.00
2023-03-13T05:33:25.564Z,95531.44
2023-03-13T05:36:12.487Z,95534.84
2023-03-13T05:38:48.838Z,95528.47
2023-03-13T05:41:34.076Z,95533.41
2023-03-13T05:44:19.540Z,95542.38
2023-03-13T05:47:04.264Z,95532.75
2023-03-13T05:49:40.400Z,95539.47
2023-03-13T05:52:31.933Z,95530.91
2023-03-13T05:54:58.749Z,95544.00
2023-03-13T05:57:54.324Z,95561.91
2023-03-13T06:00:33.921Z,95579.38
2023-03-13T06:03:20.720Z,95570.47
2023-03-13T06:05:50.051Z,95582.00
2023-03-13T06:08:30.104Z,95588.00
2023-03-13T06:11:00.296Z,95588.41
2023-03-13T06:13:27.402Z,95588.84
2023-03-13T06:15:57.865Z,95623.84
2023-03-13T06:18:45.269Z,95630.22
2023-03-13T06:21:12.007Z,95610.53
2023-03-13T06:23:38.672Z,95624.31
2023-03-13T06:26:05.506Z,95641.84
2023-03-13T06:28:32.151Z,95649.34
2023-03-13T06:31:06.375Z,95677.25
2023-03-13T06:33:33.780Z,95679.44
2023-03-13T06:36:01.723Z,95680.63
2023-03-13T06:38:29.087Z,95704.47
2023-03-13T06:40:55.751Z,95735.91
2023-03-13T06:43:22.495Z,95742.16
2023-03-13T06:45:49.167Z,95732.13
2023-03-13T06:48:15.946Z,95742.91
2023-03-13T06:50:43.189Z,95766.88
2023-03-13T06:53:17.082Z,95785.44
2023-03-13T06:55:43.862Z,95783.66
2023-03-13T06:58:18.866Z,95794.09
2023-03-13T07:00:55.627Z,95791.84
2023-03-13T07:03:22.305Z,95804.53
2023-03-13T07:05:48.901Z,95805.34
2023-03-13T07:08:15.489Z,95827.75
2023-03-13T07:10:43.405Z,95809.13
2023-03-13T07:13:10.105Z,95814.28
2023-03-13T07:15:36.728Z,95822.22
2023-03-13T07:18:03.336Z,95835.72
2023-03-13T07:20:30.025Z,95845.81
2023-03-13T07:22:56.700Z,95836.78
2023-03-13T07:25:23.329Z,95862.16
2023-03-13T07:27:52.516Z,95865.53
2023-03-13T07:30:20.126Z,95893.16
2023-03-13T07:32:46.837Z,95873.69
2023-03-13T07:35:13.483Z,95901.38
2023-03-13T07:37:40.064Z,95880.78
2023-03-13T07:40:09.319Z,95853.88
2023-03-13T07:42:36.013Z,95862.47
2023-03-13T07:45:02.669Z,95852.81
2023-03-13T07:47:29.238Z,95877.03
2023-03-13T07:49:55.879Z,95877.09
2023-03-13T07:52:23.168Z,95888.69
2023-03-13T07:54:49.834Z,95912.22
2023-03-13T07:57:16.481Z,95893.88
2023-03-13T07:59:43.008Z,95917.38
2023-03-13T08:02:13.955Z,95895.69
2023-03-13T08:04:40.677Z,95894.22
2023-03-13T08:07:11.183Z,95900.91
2023-03-13T08:09:37.933Z,95891.22
2023-03-13T08:12:05.235Z,95886.69
2023-03-13T08:14:31.918Z,95903.91
2023-03-13T08:16:58.636Z,95906.94
2023-03-13T08:19:25.523Z,95906.16
2023-03-13T08:21:52.177Z,95917.72
2023-03-13T08:24:18.790Z,95920.00
2023-03-13T08:26:45.484Z,95939.44
2023-03-13T08:29:14.299Z,95922.66
2023-03-13T08:31:45.358Z,95941.09
2023-03-13T08:34:12.593Z,95941.13
2023-03-13T08:36:39.674Z,95948.25
2023-03-13T08:39:11.217Z,95944.31
2023-03-13T08:41:40.598Z,95982.97
2023-03-13T08:44:10.297Z,96004.88
2023-03-13T08:46:37.206Z,96024.66
2023-03-13T08:49:05.532Z,96045.22
2023-03-13T08:51:32.865Z,96053.13
2023-03-13T08:53:59.527Z,96077.81
2023-03-13T08:56:30.246Z,96092.31
2023-03-13T08:58:59.908Z,96090.03
2023-03-13T09:01:29.989Z,96089.31
2023-03-13T09:03:57.817Z,96080.41
2023-03-13T09:06:24.795Z,96095.50
2023-03-13T09:08:51.736Z,96086.28
2023-03-13T09:11:20.923Z,96105.56
2023-03-13T09:13:50.026Z,96117.84
2023-03-13T09:16:28.587Z,96143.56
2023-03-13T09:18:56.251Z,96129.34
2023-03-13T09:21:28.951Z,96139.09
2023-03-13T09:23:55.550Z,96166.81
2023-03-13T09:26:23.603Z,96165.34
2023-03-13T09:28:54.417Z,96156.09
2023-03-13T09:31:24.255Z,96187.53
2023-03-13T09:33:51.751Z,96191.19
2023-03-13T09:36:21.995Z,96165.44
2023-03-13T09:38:50.178Z,96168.25
2023-03-13T09:41:16.794Z,96108.78
2023-03-13T09:43:48.924Z,96048.53
2023-03-13T09:46:25.324Z,96046.06
2023-03-13T09:49:02.747Z,96036.59
2023-03-13T09:51:35.117Z,96020.63
2023-03-13T09:54:01.794Z,96023.72
2023-03-13T09:56:37.180Z,96023.31
2023-03-13T09:59:43.598Z,96013.94
2023-03-13T10:02:23.800Z,95992.19
2023-03-13T10:04:58.435Z,95971.31
2023-03-13T10:07:25.055Z,95971.72
2023-03-13T10:09:53.727Z,95972.50
2023-03-13T10:12:39.765Z,96022.34
2023-03-13T10:15:30.700Z,96024.16
2023-03-13T10:17:59.277Z,96012.56
2023-03-13T10:20:36.054Z,96033.50
2023-03-13T10:23:13.779Z,96015.53
2023-03-13T10:25:40.874Z,95994.56
2023-03-13T10:28:16.111Z,95984.88
2023-03-13T10:30:59.232Z,96007.97
2023-03-13T10:33:28.535Z,95966.09
2023-03-13T10:36:06.571Z,95932.06
2023-03-13T10:38:44.276Z,95897.66
2023-03-13T10:41:22.792Z,95840.06
2023-03-13T10:43:52.329Z,95828.81
2023-03-13T10:46:27.935Z,95768.31
2023-03-13T10:48:56.697Z,95749.28
2023-03-13T10:51:30.337Z,95729.47
2023-03-13T10:53:57.236Z,95716.38
2023-03-13T10:56:29.149Z,95685.78
2023-03-13T10:58:56.459Z,95682.03
2023-03-13T11:01:40.950Z,95674.56
2023-03-13T11:04:39.750Z,95643.19
2023-03-13T11:07:16.900Z,95633.84
2023-03-13T11:09:43.471Z,95611.81
2023-03-13T11:12:18.975Z,95595.44
2023-03-13T11:14:45.974Z,95595.78
2023-03-13T11:17:23.956Z,95597.25
2023-03-13T11:20:08.047Z,95573.00
2023-03-13T11:22:47.788Z,95563.69
2023-03-13T11:25:25.898Z,95570.03
2023-03-13T11:28:13.448Z,95551.00
2023-03-13T11:30:58.803Z,95540.56
2023-03-13T11:33:30.242Z,95526.38
2023-03-13T11:36:01.404Z,95514.81
2023-03-13T11:38:36.509Z,95500.28
2023-03-13T11:41:26.225Z,95496.91
2023-03-13T11:44:20.311Z,95483.88
2023-03-13T11:46:49.688Z,95483.13
2023-03-13T11:49:34.997Z,95486.47
2023-03-13T11:52:22.903Z,95471.94
2023-03-13T11:55:01.762Z,95460.38
2023-03-13T11:57:37.967Z,95478.28
2023-03-13T12:00:16.804Z,95471.22
2023-03-13T12:02:49.821Z,95486.09
2023-03-13T12:05:19.985Z,95489.84
2023-03-13T12:07:52.820Z,95487.63
2023-03-13T12:10:31.104Z,95463.00
2023-03-13T12:13:03.761Z,95461.88
2023-03-13T12:15:43.444Z,95477.53
2023-03-13T12:18:20.478Z,95492.06
2023-03-13T12:21:01.807Z,95522.69
2023-03-13T12:23:40.167Z,95523.41
2023-03-13T12:26:13.141Z,95504.00
2023-03-13T12:28:58.713Z,95499.91
2023-03-13T12:31:32.124Z,95490.22
2023-03-13T12:34:33.909Z,95478.28
2023-03-13T12:37:32.234Z,95471.94
2023-03-13T12:40:14.561Z,95470.81
2023-03-13T12:43:22.029Z,95470.81
2023-03-13T12:46:01.701Z,95468.94
2023-03-13T12:48:45.540Z,95487.97
2023-03-13T12:51:24.537Z,95511.84
2023-03-13T12:54:09.715Z,95508.13
2023-03-13T12:56:47.355Z,95493.22
2023-03-13T12:59:24.624Z,95508.47
2023-03-13T13:01:54.854Z,95507.75
2023-03-13T13:04:24.964Z,95480.50
2023-03-13T13:06:57.740Z,95488.34
2023-03-13T13:09:30.819Z,95484.59
2023-03-13T13:12:00.881Z,95465.22
2023-03-13T13:14:27.445Z,95488.34
2023-03-13T13:17:24.409Z,95527.13
2023-03-13T13:19:51.444Z,95556.59
2023-03-13T13:22:39.646Z,95584.59
2023-03-13T13:25:28.342Z,95620.41
2023-03-13T13:27:56.093Z,95652.56
2023-03-13T13:30:23.889Z,95666.72
2023-03-13T13:33:19.657Z,95708.94
2023-03-13T13:35:47.505Z,95741.81
2023-03-13T13:38:27.143Z,95719.75
2023-03-13T13:41:22.242Z,95689.50
2023-03-13T13:44:09.989Z,95696.59
2023-03-13T13:46:36.765Z,95722.75
2023-03-13T13:49:06.790Z,95713.81
2023-03-13T13:51:38.204Z,95709.66
2023-03-13T13:54:42.393Z,95710.81
2023-03-13T13:57:15.877Z,95715.66
2023-03-13T13:59:45.461Z,95718.66
2023-03-13T14:02:32.213Z,95693.25
2023-03-13T14:05:17.659Z,95683.19
2023-03-13T14:08:05.930Z,95681.69
2023-03-13T14:10:42.356Z,95664.09
2023-03-13T14:13:12.004Z,95682.03
2023-03-13T14:15:42.880Z,95648.00
2023-03-13T14:18:30.294Z,95654.72
2023-03-13T14:20:56.809Z,95658.44
2023-03-13T14:23:40.033Z,95634.13
2023-03-13T14:26:13.476Z,95662.91
2023-03-13T14:28:43.675Z,95668.50
2023-03-13T14:31:12.285Z,95655.03
2023-03-13T14:33:39.215Z,95648.25
2023-03-13T14:36:06.129Z,95670.31
2023-03-13T14:38:33.609Z,95667.31
2023-03-13T14:41:00.324Z,95680.44
2023-03-13T14:43:33.863Z,95671.41
2023-03-13T14:46:01.428Z,95668.03
2023-03-13T14:48:31.925Z,95690.09
2023-03-13T14:51:16.038Z,95677.03
2023-03-13T14:54:03.086Z,95675.19
2023-03-13T14:56:43.325Z,95656.50
2023-03-13T14:59:26.034Z,95648.31
2023-03-13T15:02:28.153Z,95642.66
2023-03-13T15:04:57.453Z,95660.22
2023-03-13T15:07:26.774Z,95639.28
2023-03-13T15:09:53.605Z,95609.78
2023-03-13T15:12:22.766Z,95616.47
2023-03-13T15:14:51.328Z,95612.41
2023-03-13T15:17:23.857Z,95613.88
2023-03-13T15:19:55.886Z,95631.03
2023-03-13T15:22:35.239Z,95629.91
2023-03-13T15:25:06.982Z,95653.75
2023-03-13T15:27:34.659Z,95640.31
2023-03-13T15:30:01.272Z,95645.94
2023-03-13T15:32:37.152Z,95635.09
2023-03-13T15:35:22.188Z,95637.72
2023-03-13T15:37:48.917Z,95651.91
2023-03-13T15:40:17.005Z,95630.59
2023-03-13T15:42:43.651Z,95647.38
2023-03-13T15:45:10.544Z,95625.31
2023-03-13T15:47:37.482Z,95621.19
2023-03-13T15:50:04.928Z,95618.94
2023-03-13T15:52:32.348Z,95642.44
2023-03-13T15:54:58.946Z,95639.38
2023-03-13T15:57:26.678Z,95668.66
2023-03-13T15:59:54.407Z,95706.31
2023-03-13T16:02:23.282Z,95695.84
2023-03-13T16:04:51.103Z,95691.38
2023-03-13T16:07:20.632Z,95692.59
2023-03-13T16:09:48.020Z,95709.44
2023-03-13T16:12:14.709Z,95715.38
2023-03-13T16:14:41.284Z,95721.84
2023-03-13T16:17:15.363Z,95744.25
2023-03-13T16:19:42.646Z,95739.44
2023-03-13T16:22:09.532Z,95749.88
2023-03-13T16:24:36.274Z,95711.75
2023-03-13T16:27:02.968Z,95723.69
2023-03-13T16:29:29.581Z,95713.97
2023-03-13T16:31:56.211Z,95697.13
2023-03-13T16:34:22.836Z,95711.41
2023-03-13T16:36:49.539Z,95685.25
2023-03-13T16:39:16.634Z,95689.38
2023-03-13T16:41:43.379Z,95686.38
2023-03-13T16:44:10.326Z,95659.13
2023-03-13T16:46:39.456Z,95662.88
2023-03-13T16:49:07.726Z,95656.47
2023-03-13T16:51:34.413Z,95654.25
2023-03-13T16:54:01.049Z,95659.53
2023-03-13T16:56:36.440Z,95686.03
2023-03-13T16:59:07.663Z,95695.78
2023-03-13T17:01:35.334Z,95684.56
2023-03-13T17:04:02.274Z,95707.38
2023-03-13T17:06:32.910Z,95696.88
2023-03-13T17:09:01.644Z,95701.41
2023-03-13T17:11:28.926Z,95702.19
2023-03-13T17:13:55.839Z,95724.22
2023-03-13T17:16:33.570Z,95739.19
2023-03-13T17:19:01.325Z,95726.47
2023-03-13T17:21:30.132Z,95758.28
2023-03-13T17:23:57.028Z,95747.41
2023-03-13T17:26:26.886Z,95727.97
2023-03-13T17:28:56.159Z,95750.81
2023-03-13T17:31:24.456Z,95736.94
2023-03-13T17:33:51.555Z,95762.75
2023-03-13T17:36:27.228Z,95750.78
2023-03-13T17:38:59.354Z,95746.28
2023-03-13T17:41:32.067Z,95738.81
2023-03-13T17:44:03.880Z,95747.06
2023-03-13T17:46:38.697Z,95726.88
2023-03-13T17:49:05.503Z,95704.47
2023-03-13T17:51:33.362Z,95672.31
2023-03-13T17:54:00.698Z,95655.50
2023-03-13T17:56:32.704Z,95655.88
2023-03-13T17:59:00.741Z,95658.88
2023-03-13T18:01:30.250Z,95645.44
2023-03-13T18:03:57.031Z,95645.81
2023-03-13T18:06:29.576Z,95635.34
2023-03-13T18:09:02.880Z,95660.41
2023-03-13T18:11:29.601Z,95640.22
2023-03-13T18:13:56.375Z,95638.72
2023-03-13T18:16:30.468Z,95625.31
2023-03-13T18:18:57.549Z,95635.75
2023-03-13T18:21:24.641Z,95621.94
2023-03-13T18:23:53.009Z,95620.84
2023-03-13T18:26:28.674Z,95621.94
2023-03-13T18:29:00.119Z,95621.56
2023-03-13T18:31:32.496Z,95617.47
2023-03-13T18:33:59.450Z,95666.75
2023-03-13T18:36:27.056Z,95700.78
2023-03-13T18:38:54.164Z,95734.38
2023-03-13T18:41:20.874Z,95713.06
2023-03-13T18:43:47.534Z,95732.88
2023-03-13T18:46:19.773Z,95729.13
2023-03-13T18:48:46.658Z,95715.69
2023-03-13T18:51:15.497Z,95706.31
2023-03-13T18:53:42.440Z,95699.25
2023-03-13T18:56:31.120Z,95697.00
2023-03-13T18:58:58.888Z,95715.28
2023-03-13T19:01:28.264Z,95725.75
2023-03-13T19:03:55.005Z,95664.53
2023-03-13T19:06:24.589Z,95657.41
2023-03-13T19:08:55.760Z,95655.56
2023-03-13T19:11:25.462Z,95727.59
2023-03-13T19:13:52.201Z,95687.28
2023-03-13T19:16:25.604Z,95679.81
2023-03-13T19:18:52.367Z,95692.50
2023-03-13T19:21:22.509Z,95696.97
2023-03-13T19:23:50.138Z,95729.81
2023-03-13T19:26:30.207Z,95718.97
2023-03-13T19:28:57.404Z,95727.16
2023-03-13T19:31:24.280Z,95700.69
2023-03-13T19:33:53.518Z,95692.81
2023-03-13T19:36:22.467Z,95718.59
2023-03-13T19:38:49.412Z,95742.47
2023-03-13T19:41:16.958Z,95751.03
2023-03-13T19:43:44.396Z,95797.69
2023-03-13T19:46:14.080Z,95815.91
2023-03-13T19:48:40.714Z,95806.28
2023-03-13T19:51:07.289Z,95756.22
2023-03-13T19:53:34.735Z,95749.81
2023-03-13T19:56:01.415Z,95785.22
2023-03-13T19:58:27.964Z,95829.63
2023-03-13T20:00:55.351Z,95849.38
2023-03-13T20:03:24.074Z,95847.47
2023-03-13T20:05:51.443Z,95815.75
2023-03-13T20:08:18.136Z,95819.50
2023-03-13T20:10:44.655Z,95808.25
2023-03-13T20:13:11.236Z,95795.94
2023-03-13T20:15:37.862Z,95798.53
2023-03-13T20:18:04.789Z,95801.44
2023-03-13T20:20:31.533Z,95779.00
2023-03-13T20:22:58.121Z,95767.09
2023-03-13T20:25:25.302Z,95739.09
2023-03-13T20:27:52.240Z,95720.78
2023-03-13T20:30:19.069Z,95744.22
2023-03-13T20:32:57.083Z,95765.81
2023-03-13T20:35:25.710Z,95756.47
2023-03-13T20:37:54.640Z,95770.63
2023-03-13T20:40:21.343Z,95763.47
2023-03-13T20:42:47.993Z,95751.38
2023-03-13T20:45:14.706Z,95745.56
2023-03-13T20:47:41.431Z,95727.94
2023-03-13T20:50:08.726Z,95727.19
2023-03-13T20:52:35.525Z,95719.38
2023-03-13T20:55:02.228Z,95702.50
2023-03-13T20:57:28.867Z,95673.41
2023-03-13T20:59:55.475Z,95661.50
2023-03-13T21:02:22.462Z,95641.72
2023-03-13T21:04:49.177Z,95614.91
2023-03-13T21:07:15.714Z,95588.41
2023-03-13T21:09:42.382Z,95586.56
2023-03-13T21:12:09.858Z,95581.66
2023-03-13T21:14:37.309Z,95570.03
2023-03-13T21:17:04.281Z,95569.25
2023-03-13T21:19:31.064Z,95578.97
2023-03-13T21:21:57.766Z,95568.56
2023-03-13T21:24:24.314Z,95561.75
2023-03-13T21:26:50.973Z,95555.72
2023-03-13T21:29:17.925Z,95562.16
2023-03-13T21:31:44.568Z,95585.56
2023-03-13T21:34:11.493Z,95589.97
2023-03-13T21:36:38.115Z,95602.66
2023-03-13T21:39:08.301Z,95591.13
2023-03-13T21:41:35.424Z,95598.84
2023-03-13T21:44:02.692Z,95603.44
2023-03-13T21:46:33.259Z,95610.47
2023-03-13T21:49:00.829Z,95597.00
2023-03-13T21:51:28.382Z,95574.69
2023-03-13T21:53:55.284Z,95575.78
2023-03-13T21:56:22.383Z,95574.69
2023-03-13T21:58:49.044Z,95576.88
2023-03-13T22:01:16.103Z,95583.09
2023-03-13T22:03:42.913Z,95574.16
2023-03-13T22:06:18.545Z,95591.56
2023-03-13T22:08:45.499Z,95588.66
2023-03-13T22:11:12.246Z,95589.84
2023-03-13T22:13:39.202Z,95590.16
2023-03-13T22:16:06.364Z,95575.91
2023-03-13T22:18:32.990Z,95559.13
2023-03-13T22:21:00.414Z,95552.03
2023-03-13T22:23:27.169Z,95566.09
2023-03-13T22:25:58.818Z,95573.91
2023-03-13T22:28:26.320Z,95575.69
2023-03-13T22:30:52.915Z,95571.53
2023-03-13T22:33:19.536Z,95583.50
2023-03-13T22:35:52.596Z,95604.34
2023-03-13T22:38:20.543Z,95586.78
2023-03-13T22:40:48.322Z,95577.41
2023-03-13T22:43:15.063Z,95558.03
2023-03-13T22:45:41.682Z,95559.94
2023-03-13T22:48:08.296Z,95559.22
2023-03-13T22:50:36.310Z,95538.72
2023-03-13T22:53:03.366Z,95520.53
2023-03-13T22:55:32.191Z,95515.31
2023-03-13T22:57:59.266Z,95500.75
2023-03-13T23:00:26.249Z,95481.41
2023-03-13T23:02:54.753Z,95477.75
2023-03-13T23:05:21.640Z,95490.19
2023-03-13T23:07:50.427Z,95501.00
2023-03-13T23:10:18.452Z,95507.66
2023-03-13T23:12:45.107Z,95478.88
2023-03-13T23:15:12.122Z,95484.81
2023-03-13T23:17:38.879Z,95503.94
2023-03-13T23:20:16.256Z,95506.84
2023-03-13T23:22:44.868Z,95493.03
2023-03-13T23:25:12.841Z,95487.81
2023-03-13T23:27:39.608Z,95467.69
2023-03-13T23:30:08.634Z,95485.97
2023-03-13T23:32:37.594Z,95485.59
2023-03-13T23:35:05.483Z,95478.56
2023-03-13T23:37:33.392Z,95492.47
2023-03-13T23:40:01.244Z,95518.13
2023-03-13T23:42:28.698Z,95531.09
2023-03-13T23:44:55.244Z,95531.47
2023-03-13T23:47:22.051Z,95523.31
2023-03-13T23:49:48.762Z,95515.50
2023-03-13T23:52:15.349Z,95537.91
2023-03-13T23:54:41.946Z,95555.38
2023-03-13T23:57:08.563Z,95568.88
2023-03-13T23:59:35.121Z,95539.78
